Montecarlo, Argentina
Current Conditions -  °F | °C
As of 7:00 PM on Tuesday 25 Nov 2014 (Local Time) from SARI Reporting Station
Broken Clouds Broken Clouds  
Wind Chill: 73°   Ceiling: 10000
Heat Index: 73°   Visibility: 6mi
Dew Point: 73°   Wind: 9mph
Humidity: 100%   Direction: 50°NE
Pressure: 29.74"   Gusts: NA
Location:  26.62°S, 54.75°W
Report Text: SARI 252200Z 05008KT 9999 FEW025 BKN10023/23 Q1007
Loading
Personal Weather Stations






























Interactive Weather Map New forecast layout! Learn more

10-Day Weather Forecast

Advertisements
Track Severe Weather on mobile